Time;durP1;ratioP1;P1;durP2;ratioP2;P2;SDS_P1;SDS_P2;PMS_P1;PMS_P2;Temp;Humidity;BMP_temperature;BMP_pressure;BME280_temperature;BME280_humidity;BME280_pressure;Samples;Min_cycle;Max_cycle;Signal;HPM_P1;HPM_P2
2023/10/07 00:02:12;;;;;;;7.40;5.10;;;12.80;99.10;;;;;;949860;146;27341;-75
2023/10/07 00:04:28;;;;;;;7.50;4.47;;;12.80;99.20;;;;;;948527;146;27344;-74
2023/10/07 00:06:56;;;;;;;6.23;4.80;;;12.80;99.20;;;;;;950745;146;27353;-73
2023/10/07 00:09:22;;;;;;;6.87;4.70;;;12.80;99.20;;;;;;949591;146;27403;-73
2023/10/07 00:11:47;;;;;;;7.90;4.63;;;12.70;99.20;;;;;;947689;146;27366;-76
2023/10/07 00:14:14;;;;;;;6.33;4.50;;;12.80;99.20;;;;;;949424;146;27435;-73
2023/10/07 00:16:43;;;;;;;5.27;4.23;;;12.70;99.10;;;;;;950896;146;27388;-73
2023/10/07 00:19:07;;;;;;;6.87;4.73;;;12.70;99.00;;;;;;949736;146;27354;-74
2023/10/07 00:24:19;;;;;;;7.37;4.40;;;12.60;99.10;;;;;;951117;146;27332;-74
2023/10/07 00:26:47;;;;;;;7.03;4.43;;;12.60;99.00;;;;;;949945;146;27434;-73
2023/10/07 00:29:12;;;;;;;5.60;4.10;;;12.50;99.30;;;;;;951106;146;27377;-77
2023/10/07 00:31:40;;;;;;;7.27;4.57;;;12.50;99.40;;;;;;949446;146;27313;-73
2023/10/07 00:34:06;;;;;;;7.23;4.80;;;12.40;99.50;;;;;;950384;146;27335;-73
2023/10/07 00:39:02;;;;;;;6.33;4.90;;;12.40;99.80;;;;;;948462;146;27288;-73
2023/10/07 00:41:36;;;;;;;7.10;4.77;;;12.30;99.80;;;;;;948450;146;27337;-74
2023/10/07 00:43:59;;;;;;;7.37;5.07;;;12.30;99.90;;;;;;949081;146;27357;-73
2023/10/07 00:46:28;;;;;;;6.40;4.97;;;12.30;99.90;;;;;;951196;146;27366;-73
2023/10/07 00:48:47;;;;;;;10.07;4.77;;;12.30;99.90;;;;;;947706;146;27412;-74
2023/10/07 00:51:17;;;;;;;7.07;5.40;;;12.20;99.90;;;;;;947755;146;27322;-74
2023/10/07 00:53:51;;;;;;;8.10;4.80;;;12.20;99.90;;;;;;949840;146;27438;-74
2023/10/07 00:56:14;;;;;;;6.90;4.90;;;12.20;99.90;;;;;;948015;146;27864;-73
2023/10/07 00:58:41;;;;;;;7.70;4.80;;;12.20;99.90;;;;;;949650;146;27923;-76
2023/10/07 01:01:09;;;;;;;6.63;5.23;;;12.20;99.90;;;;;;957370;147;27404;-80
2023/10/07 01:03:47;;;;;;;5.83;4.40;;;12.20;99.90;;;;;;944833;147;27907;-80
2023/10/07 01:09:08;;;;;;;6.77;4.83;;;12.20;99.90;;;;;;952146;145;27359;-75
2023/10/07 01:11:19;;;;;;;7.37;4.47;;;12.20;99.90;;;;;;939476;145;27480;-80
2023/10/07 01:13:29;;;;;;;6.47;4.43;;;12.20;99.90;;;;;;949044;145;27439;-75
2023/10/07 01:15:53;;;;;;;7.17;5.23;;;12.20;99.90;;;;;;951958;145;27359;-81
2023/10/07 01:18:19;;;;;;;7.23;4.63;;;12.20;99.90;;;;;;951225;145;27374;-80
2023/10/07 01:23:32;;;;;;;6.50;4.63;;;12.10;99.90;;;;;;952150;145;27359;-80
2023/10/07 01:25:53;;;;;;;6.13;4.77;;;12.10;99.90;;;;;;956536;147;27484;-80
2023/10/07 01:28:16;;;;;;;8.07;4.90;;;12.10;99.90;;;;;;946539;147;27459;-76
2023/10/07 01:31:29;;;;;;;8.50;5.40;;;12.10;99.90;;;;;;962774;144;27425;-80
2023/10/07 01:33:24;;;;;;;9.60;5.57;;;12.10;99.90;;;;;;951107;144;27323;-80
2023/10/07 01:36:05;;;;;;;7.50;5.13;;;12.10;99.90;;;;;;960843;144;27459;-82
2023/10/07 01:38:08;;;;;;;7.83;5.10;;;12.10;99.90;;;;;;958729;144;27314;-81
2023/10/07 01:40:52;;;;;;;7.00;5.10;;;12.10;99.90;;;;;;948572;147;27327;-78
2023/10/07 01:43:02;;;;;;;7.50;4.77;;;12.10;99.90;;;;;;950384;145;28246;-80
2023/10/07 01:45:34;;;;;;;7.90;5.63;;;12.10;99.90;;;;;;937677;148;27423;-80
2023/10/07 01:47:55;;;;;;;7.63;5.40;;;12.10;99.90;;;;;;948442;146;27347;-81
2023/10/07 01:50:21;;;;;;;6.53;5.47;;;12.10;99.90;;;;;;946458;146;27382;-75
2023/10/07 01:52:49;;;;;;;7.47;4.80;;;12.10;99.90;;;;;;948571;146;27315;-79
2023/10/07 01:55:16;;;;;;;7.80;5.37;;;12.10;99.90;;;;;;944938;146;27379;-76
2023/10/07 01:57:44;;;;;;;8.93;5.20;;;12.00;99.90;;;;;;947093;146;27349;-81
2023/10/07 02:00:11;;;;;;;7.47;5.80;;;12.00;99.90;;;;;;946754;146;27439;-76
2023/10/07 02:02:42;;;;;;;7.77;5.47;;;12.00;99.90;;;;;;945261;146;27336;-81
2023/10/07 02:05:11;;;;;;;7.77;5.53;;;12.00;99.90;;;;;;944872;146;27359;-79
2023/10/07 02:07:29;;;;;;;8.37;5.77;;;11.90;99.90;;;;;;943934;146;27754;-76
2023/10/07 02:09:57;;;;;;;6.67;5.20;;;11.90;99.90;;;;;;945520;146;27396;-73
2023/10/07 02:12:24;;;;;;;9.63;5.90;;;11.90;99.90;;;;;;946070;146;27375;-72
2023/10/07 02:14:48;;;;;;;8.43;5.13;;;11.90;99.90;;;;;;936761;148;27426;-73
2023/10/07 02:17:19;;;;;;;8.87;5.83;;;11.80;99.90;;;;;;950483;146;27411;-76
2023/10/07 02:19:43;;;;;;;8.33;5.40;;;11.80;99.90;;;;;;947251;148;27432;-75
2023/10/07 02:22:13;;;;;;;9.97;5.03;;;11.80;99.90;;;;;;936561;148;27436;-74
2023/10/07 02:24:35;;;;;;;10.77;6.33;;;11.80;99.90;;;;;;935092;148;27425;-75
2023/10/07 02:27:16;;;;;;;7.77;5.60;;;11.80;99.90;;;;;;952374;145;27316;-74
2023/10/07 02:29:34;;;;;;;7.87;5.40;;;11.70;99.90;;;;;;952631;145;27470;-74
2023/10/07 02:32:12;;;;;;;5.67;4.87;;;11.70;99.90;;;;;;953849;145;27274;-77
2023/10/07 02:34:33;;;;;;;7.07;5.20;;;11.70;99.90;;;;;;952027;145;27438;-75
2023/10/07 02:37:12;;;;;;;8.27;5.17;;;11.70;99.90;;;;;;952269;145;27309;-74
2023/10/07 02:39:27;;;;;;;7.23;5.07;;;11.60;99.90;;;;;;952870;145;27312;-73
2023/10/07 02:41:52;;;;;;;8.63;5.50;;;11.60;99.90;;;;;;951927;145;27328;-74
2023/10/07 02:44:26;;;;;;;8.63;5.33;;;11.60;99.90;;;;;;951983;145;27489;-73
2023/10/07 02:46:52;;;;;;;6.90;5.57;;;11.50;99.90;;;;;;952068;145;27309;-73
2023/10/07 02:49:13;;;;;;;7.50;5.23;;;11.50;99.90;;;;;;952211;145;27412;-74
2023/10/07 02:51:56;;;;;;;8.97;6.83;;;11.50;99.90;;;;;;953393;145;27384;-73
2023/10/07 02:55:13;;;;;;;7.20;5.70;;;11.50;99.90;;;;;;948803;145;27891;-75
2023/10/07 02:56:43;;;;;;;8.67;6.20;;;11.50;99.90;;;;;;937431;145;27262;-73
2023/10/07 02:59:03;;;;;;;7.47;4.90;;;11.40;99.90;;;;;;951376;145;27278;-76
2023/10/07 03:01:28;;;;;;;9.00;5.50;;;11.40;99.90;;;;;;952498;145;27327;-74
2023/10/07 03:03:54;;;;;;;8.97;5.27;;;11.40;99.90;;;;;;954348;145;27256;-78
2023/10/07 03:06:25;;;;;;;7.73;4.87;;;11.30;99.90;;;;;;954180;145;27412;-74
2023/10/07 03:11:21;;;;;;;9.30;5.40;;;11.30;99.90;;;;;;953440;145;27356;-77
2023/10/07 03:13:45;;;;;;;7.07;5.30;;;11.30;99.90;;;;;;947240;148;27252;-73
2023/10/07 03:16:28;;;;;;;7.17;5.10;;;11.30;99.90;;;;;;953456;148;27331;-73
2023/10/07 03:18:38;;;;;;;8.57;5.30;;;11.20;99.90;;;;;;936661;148;27347;-76
2023/10/07 03:21:14;;;;;;;7.37;5.30;;;11.20;99.90;;;;;;936407;148;27384;-77
2023/10/07 03:23:58;;;;;;;7.47;4.93;;;11.20;99.90;;;;;;936292;148;27482;-77
2023/10/07 03:26:08;;;;;;;8.83;5.40;;;11.20;99.90;;;;;;944554;146;27979;-77
2023/10/07 03:28:36;;;;;;;9.33;5.67;;;11.10;99.90;;;;;;935977;148;27432;-77
2023/10/07 03:31:01;;;;;;;6.73;5.00;;;11.10;99.90;;;;;;936783;148;27314;-77
2023/10/07 03:33:42;;;;;;;6.47;5.53;;;11.10;99.90;;;;;;936917;148;27435;-77
2023/10/07 03:36:15;;;;;;;8.13;5.27;;;11.10;99.90;;;;;;936182;147;27450;-77
2023/10/07 03:38:26;;;;;;;8.20;5.27;;;11.10;99.90;;;;;;933859;148;27339;-77
2023/10/07 03:40:56;;;;;;;9.53;5.73;;;11.10;99.90;;;;;;949799;146;27351;-77
2023/10/07 03:43:19;;;;;;;6.70;5.50;;;11.10;99.90;;;;;;945744;146;27296;-77
2023/10/07 03:45:46;;;;;;;7.30;5.63;;;11.10;99.90;;;;;;944575;146;27444;-77
2023/10/07 03:48:24;;;;;;;6.30;5.03;;;11.10;99.90;;;;;;943540;147;27379;-77
2023/10/07 03:50:59;;;;;;;7.50;5.50;;;11.00;99.90;;;;;;942738;147;27293;-77
2023/10/07 03:53:18;;;;;;;6.97;5.27;;;11.00;99.90;;;;;;940680;147;27372;-77
2023/10/07 03:55:44;;;;;;;8.30;5.60;;;11.00;99.90;;;;;;941706;147;27406;-77
2023/10/07 03:58:19;;;;;;;8.43;5.43;;;11.00;99.90;;;;;;944050;147;27889;-77
2023/10/07 04:00:41;;;;;;;9.73;5.80;;;11.00;99.90;;;;;;942618;147;27442;-77
2023/10/07 04:03:07;;;;;;;11.20;5.10;;;10.90;99.90;;;;;;943219;147;27328;-77
2023/10/07 04:05:33;;;;;;;8.33;5.60;;;10.90;99.90;;;;;;946451;147;27380;-77
2023/10/07 04:08:02;;;;;;;7.97;5.57;;;10.90;99.90;;;;;;943744;147;27327;-77
2023/10/07 04:10:36;;;;;;;8.23;5.33;;;10.90;99.90;;;;;;942358;147;27415;-77
2023/10/07 04:12:59;;;;;;;7.67;5.30;;;10.90;99.90;;;;;;943065;147;27353;-77
2023/10/07 04:15:29;;;;;;;8.20;5.60;;;10.90;99.90;;;;;;943413;147;27348;-77
2023/10/07 04:17:52;;;;;;;8.33;5.57;;;10.90;99.90;;;;;;942135;147;27392;-77
2023/10/07 04:20:19;;;;;;;9.20;5.93;;;10.90;99.90;;;;;;942593;147;27457;-77
2023/10/07 04:23:03;;;;;;;8.47;5.67;;;10.90;99.90;;;;;;942732;147;27871;-77
2023/10/07 04:25:39;;;;;;;7.37;5.23;;;10.80;99.90;;;;;;943196;147;27470;-77
2023/10/07 04:27:59;;;;;;;8.27;5.60;;;10.80;99.90;;;;;;942238;148;27402;-78
2023/10/07 04:30:38;;;;;;;6.50;4.90;;;10.80;99.90;;;;;;945827;146;27301;-77
2023/10/07 04:33:01;;;;;;;7.27;5.17;;;10.90;99.90;;;;;;944246;146;27473;-77
2023/10/07 04:35:26;;;;;;;6.53;4.73;;;10.90;99.90;;;;;;946814;146;27884;-77
2023/10/07 04:38:08;;;;;;;7.33;4.90;;;10.90;99.90;;;;;;946176;146;27340;-77
2023/10/07 04:45:36;;;;;;;10.37;5.60;;;10.90;99.90;;;;;;924183;146;28429;-78
2023/10/07 04:47:57;;;;;;;7.33;5.40;;;10.90;99.90;;;;;;944499;146;27344;-77
2023/10/07 04:50:20;;;;;;;10.20;5.50;;;10.90;99.90;;;;;;944828;146;27388;-77
2023/10/07 04:53:02;;;;;;;7.53;5.23;;;10.90;99.90;;;;;;947573;146;27358;-77
2023/10/07 04:55:19;;;;;;;7.27;5.30;;;10.90;99.90;;;;;;946572;146;27406;-77
2023/10/07 05:03:03;;;;;;;6.90;5.83;;;10.90;99.90;;;;;;947876;146;28085;-77
2023/10/07 05:05:30;;;;;;;7.23;5.60;;;10.90;99.90;;;;;;948228;146;27320;-77
2023/10/07 05:08:08;;;;;;;8.20;6.00;;;10.90;99.90;;;;;;943780;146;27324;-77
2023/10/07 05:10:28;;;;;;;8.33;6.37;;;10.90;99.90;;;;;;945684;146;27395;-77
2023/10/07 05:12:55;;;;;;;9.90;6.37;;;10.90;99.90;;;;;;945657;146;28055;-77
2023/10/07 05:15:19;;;;;;;6.67;5.70;;;10.90;99.90;;;;;;947596;146;27327;-77
2023/10/07 05:17:45;;;;;;;7.53;5.17;;;11.00;99.90;;;;;;946284;146;27443;-77
2023/10/07 05:20:27;;;;;;;11.10;6.10;;;11.00;99.90;;;;;;947943;146;27332;-77
2023/10/07 05:22:38;;;;;;;7.90;5.60;;;11.00;99.90;;;;;;944395;146;27295;-77
2023/10/07 05:25:08;;;;;;;7.07;5.87;;;11.00;99.90;;;;;;949515;146;27501;-77
2023/10/07 05:27:32;;;;;;;7.63;5.70;;;11.10;99.90;;;;;;945788;146;27395;-77
2023/10/07 05:29:58;;;;;;;7.90;5.70;;;11.10;99.90;;;;;;949254;146;27344;-77
2023/10/07 05:32:25;;;;;;;6.73;4.93;;;11.20;99.90;;;;;;946014;146;27328;-77
2023/10/07 05:34:51;;;;;;;7.40;5.10;;;11.20;99.90;;;;;;951026;146;27372;-77
2023/10/07 05:37:18;;;;;;;8.30;5.17;;;11.20;99.90;;;;;;945712;146;27336;-77
2023/10/07 05:39:45;;;;;;;9.03;6.00;;;11.20;99.90;;;;;;949033;146;27464;-79
2023/10/07 05:42:13;;;;;;;6.53;5.30;;;11.30;99.90;;;;;;945867;146;27318;-81
2023/10/07 05:44:40;;;;;;;8.50;5.60;;;11.30;99.90;;;;;;947599;146;27343;-81
2023/10/07 05:47:08;;;;;;;6.57;5.10;;;11.40;99.90;;;;;;942162;146;27358;-81
2023/10/07 05:49:33;;;;;;;8.43;4.93;;;11.40;99.90;;;;;;944422;147;27374;-80
2023/10/07 05:52:00;;;;;;;8.67;5.73;;;11.50;99.90;;;;;;942895;147;27345;-77
2023/10/07 05:54:28;;;;;;;7.57;5.33;;;11.50;99.90;;;;;;944210;147;27371;-79
2023/10/07 05:56:54;;;;;;;9.53;5.87;;;11.50;99.90;;;;;;944693;147;27477;-79
2023/10/07 05:59:20;;;;;;;11.33;5.70;;;11.60;99.90;;;;;;944216;147;27363;-79
2023/10/07 06:01:46;;;;;;;8.73;5.67;;;11.60;99.90;;;;;;943311;147;28346;-81
2023/10/07 06:04:13;;;;;;;9.23;5.53;;;11.70;99.90;;;;;;943521;147;27456;-78
2023/10/07 06:06:42;;;;;;;8.07;5.67;;;11.80;99.90;;;;;;939960;148;27475;-81
2023/10/07 06:09:10;;;;;;;6.60;4.60;;;11.80;99.90;;;;;;942437;147;27469;-80
2023/10/07 06:11:34;;;;;;;7.57;5.53;;;11.90;99.90;;;;;;949930;146;27800;-82
2023/10/07 06:13:59;;;;;;;9.67;6.07;;;12.00;99.90;;;;;;949672;146;27425;-81
2023/10/07 06:16:26;;;;;;;6.80;5.20;;;12.00;99.90;;;;;;951329;146;27395;-79
2023/10/07 06:18:53;;;;;;;6.70;4.93;;;12.10;99.90;;;;;;949831;146;27365;-80
2023/10/07 06:21:40;;;;;;;7.77;5.07;;;12.20;99.90;;;;;;949242;146;27224;-80
2023/10/07 06:23:53;;;;;;;6.67;4.97;;;12.30;99.90;;;;;;944790;146;28000;-81
2023/10/07 06:26:18;;;;;;;6.37;5.03;;;12.30;99.90;;;;;;950401;146;27461;-78
2023/10/07 06:28:45;;;;;;;7.57;6.03;;;12.40;99.90;;;;;;951578;146;28340;-79
2023/10/07 06:31:11;;;;;;;7.30;5.43;;;12.50;99.90;;;;;;950646;146;27358;-78
2023/10/07 06:33:43;;;;;;;7.17;5.20;;;12.60;99.90;;;;;;948467;146;27478;-78
2023/10/07 06:36:10;;;;;;;8.53;4.90;;;12.60;99.90;;;;;;950424;146;27337;-78
2023/10/07 06:38:36;;;;;;;7.30;5.23;;;12.70;99.90;;;;;;952769;146;27384;-79
2023/10/07 06:41:11;;;;;;;7.00;5.13;;;12.80;99.90;;;;;;949797;146;27324;-78
2023/10/07 06:43:37;;;;;;;8.85;5.12;;;12.90;99.90;;;;;;947164;146;27456;-78
2023/10/07 06:46:02;;;;;;;6.17;4.53;;;12.90;99.90;;;;;;949522;146;27364;-78
2023/10/07 06:48:30;;;;;;;7.07;4.93;;;13.00;99.90;;;;;;951342;146;27370;-78
2023/10/07 06:50:55;;;;;;;8.23;5.03;;;13.10;99.90;;;;;;947647;146;27447;-79
2023/10/07 06:53:22;;;;;;;7.85;5.40;;;13.20;99.90;;;;;;949049;146;27467;-77
2023/10/07 06:55:48;;;;;;;6.27;4.63;;;13.20;99.90;;;;;;951126;146;27379;-79
2023/10/07 06:58:14;;;;;;;9.53;5.37;;;13.20;99.90;;;;;;950394;146;27370;-78
2023/10/07 07:00:50;;;;;;;7.70;5.65;;;13.30;99.90;;;;;;947417;146;27344;-77
2023/10/07 07:03:18;;;;;;;8.77;5.53;;;13.40;99.90;;;;;;949298;146;27469;-79
2023/10/07 07:05:45;;;;;;;7.87;5.40;;;13.40;99.90;;;;;;948301;146;27417;-77
2023/10/07 07:08:10;;;;;;;7.83;5.07;;;13.50;99.90;;;;;;949202;146;27306;-78
2023/10/07 07:10:36;;;;;;;6.23;5.07;;;13.50;99.90;;;;;;950655;146;27438;-79
2023/10/07 07:13:12;;;;;;;8.45;5.40;;;13.60;99.90;;;;;;952167;146;27450;-79
2023/10/07 07:15:36;;;;;;;5.47;4.20;;;13.60;99.90;;;;;;949308;146;27360;-76
2023/10/07 07:18:14;;;;;;;6.80;4.97;;;13.70;99.90;;;;;;951729;146;27391;-77
2023/10/07 07:20:32;;;;;;;9.38;5.30;;;13.80;99.90;;;;;;949373;146;27365;-75
2023/10/07 07:22:50;;;;;;;6.10;4.55;;;13.90;99.90;;;;;;948453;146;27421;-79
2023/10/07 07:27:58;;;;;;;7.67;5.12;;;14.10;99.90;;;;;;948777;146;27383;-80
2023/10/07 07:30:29;;;;;;;7.80;5.60;;;14.20;99.90;;;;;;949892;146;27343;-79
2023/10/07 07:32:55;;;;;;;5.75;4.80;;;14.20;99.90;;;;;;952217;146;27476;-79
2023/10/07 07:35:22;;;;;;;6.42;5.10;;;14.30;99.90;;;;;;950252;146;27338;-78
2023/10/07 07:37:45;;;;;;;6.22;4.90;;;14.40;99.90;;;;;;950565;146;27371;-76
2023/10/07 07:42:57;;;;;;;8.80;5.25;;;14.50;99.90;;;;;;950782;146;27378;-79
2023/10/07 07:45:26;;;;;;;6.75;4.92;;;14.60;99.90;;;;;;949564;146;27260;-79
2023/10/07 07:47:56;;;;;;;6.70;4.92;;;14.70;99.90;;;;;;950013;146;27405;-78
2023/10/07 07:50:22;;;;;;;6.55;4.90;;;14.80;99.90;;;;;;950015;146;27415;-79
2023/10/07 07:52:49;;;;;;;7.42;5.28;;;14.80;99.90;;;;;;952485;146;27278;-79
2023/10/07 07:55:18;;;;;;;7.25;5.15;;;14.90;99.90;;;;;;952049;146;27318;-77
2023/10/07 07:57:45;;;;;;;6.97;4.65;;;15.00;99.90;;;;;;951657;146;27370;-73
2023/10/07 08:00:20;;;;;;;6.00;4.85;;;15.10;99.90;;;;;;951217;146;27386;-75
2023/10/07 08:02:48;;;;;;;6.95;4.92;;;15.10;99.90;;;;;;951573;146;27360;-73
2023/10/07 08:05:12;;;;;;;7.97;4.67;;;15.20;99.90;;;;;;950250;146;27788;-75
2023/10/07 08:07:39;;;;;;;7.72;4.83;;;15.30;99.90;;;;;;949802;146;27421;-75
2023/10/07 08:10:03;;;;;;;5.70;4.30;;;15.40;99.90;;;;;;951782;146;27390;-73
2023/10/07 08:12:31;;;;;;;6.55;4.97;;;15.50;99.90;;;;;;949489;146;27351;-75
2023/10/07 08:14:58;;;;;;;5.78;4.85;;;15.60;99.90;;;;;;950404;146;27368;-73
2023/10/07 08:17:27;;;;;;;7.67;4.40;;;15.70;99.90;;;;;;951970;146;27337;-74
2023/10/07 08:19:52;;;;;;;6.25;4.67;;;15.90;99.90;;;;;;952716;146;27220;-72
2023/10/07 08:22:20;;;;;;;6.78;4.83;;;16.00;99.90;;;;;;951946;146;27372;-73
2023/10/07 08:24:45;;;;;;;6.53;4.58;;;16.20;99.90;;;;;;950667;146;27423;-74
2023/10/07 08:30:06;;;;;;;8.93;4.60;;;16.50;99.90;;;;;;949112;146;27296;-79
2023/10/07 08:32:48;;;;;;;7.70;4.37;;;16.70;99.90;;;;;;950920;146;27407;-77
2023/10/07 08:34:51;;;;;;;7.12;5.47;;;16.80;99.90;;;;;;946852;146;27324;-74
2023/10/07 08:37:18;;;;;;;8.00;4.25;;;17.00;99.90;;;;;;950312;146;27312;-74
2023/10/07 08:39:47;;;;;;;4.70;3.52;;;17.20;99.90;;;;;;952681;146;27361;-77
2023/10/07 08:42:23;;;;;;;6.03;4.20;;;17.40;99.90;;;;;;953526;146;27457;-75
2023/10/07 08:44:43;;;;;;;6.37;4.22;;;17.60;99.90;;;;;;956393;146;27361;-74
2023/10/07 08:47:11;;;;;;;6.55;4.50;;;17.70;99.90;;;;;;953661;146;27319;-77
2023/10/07 08:49:36;;;;;;;7.33;4.42;;;17.90;99.90;;;;;;955043;146;27406;-73
2023/10/07 08:52:11;;;;;;;4.80;3.80;;;18.00;99.90;;;;;;955326;146;27373;-77
2023/10/07 08:54:38;;;;;;;7.47;4.40;;;18.20;99.90;;;;;;955034;146;27374;-75
2023/10/07 08:57:15;;;;;;;4.67;3.98;;;18.30;99.90;;;;;;957731;146;27432;-74
2023/10/07 08:59:40;;;;;;;6.95;3.80;;;18.50;99.60;;;;;;956348;146;27472;-77
2023/10/07 09:02:12;;;;;;;5.28;4.03;;;18.60;98.80;;;;;;955954;146;27390;-75
2023/10/07 09:04:33;;;;;;;5.97;4.22;;;18.80;98.50;;;;;;955746;146;27536;-74
2023/10/07 09:07:11;;;;;;;6.15;4.30;;;19.10;99.90;;;;;;956362;146;27303;-75
2023/10/07 09:09:43;;;;;;;7.12;3.85;;;19.50;99.90;;;;;;954852;146;27400;-77
2023/10/07 09:12:03;;;;;;;5.53;3.80;;;20.10;99.90;;;;;;953507;146;27538;-77
2023/10/07 09:14:27;;;;;;;7.67;4.35;;;20.80;99.90;;;;;;953804;146;27356;-77
2023/10/07 09:16:51;;;;;;;7.42;3.62;;;21.50;99.90;;;;;;953425;146;27335;-77
2023/10/07 09:19:20;;;;;;;5.55;3.67;;;22.00;97.00;;;;;;952232;146;27440;-77
2023/10/07 09:21:45;;;;;;;5.60;3.90;;;22.50;93.80;;;;;;955512;146;27240;-77
2023/10/07 09:24:18;;;;;;;5.12;4.00;;;22.90;91.50;;;;;;954621;146;27434;-77
2023/10/07 09:26:41;;;;;;;5.62;3.67;;;23.30;90.00;;;;;;952711;146;27321;-77
2023/10/07 09:29:22;;;;;;;7.75;3.80;;;23.60;87.00;;;;;;951509;146;27327;-77
2023/10/07 09:31:35;;;;;;;4.70;3.42;;;23.70;83.20;;;;;;949928;146;27478;-77
2023/10/07 09:34:02;;;;;;;6.15;3.52;;;23.90;80.00;;;;;;955823;146;27810;-77
2023/10/07 09:39:13;;;;;;;5.85;4.00;;;23.80;75.80;;;;;;954374;146;27323;-77
2023/10/07 09:43:51;;;;;;;7.28;3.90;;;23.60;74.50;;;;;;955549;146;27481;-77
2023/10/07 09:46:24;;;;;;;4.20;3.85;;;23.40;73.90;;;;;;954374;146;27361;-77
2023/10/07 09:48:43;;;;;;;4.75;3.50;;;23.30;73.90;;;;;;952721;146;27369;-77
2023/10/07 09:51:17;;;;;;;5.00;3.60;;;23.10;74.10;;;;;;953578;146;27347;-77
2023/10/07 09:53:55;;;;;;;5.08;3.62;;;23.00;74.60;;;;;;950981;146;27309;-77
2023/10/07 09:56:23;;;;;;;4.25;3.17;;;22.90;74.90;;;;;;952097;146;27355;-77
2023/10/07 09:59:16;;;;;;;5.45;3.22;;;22.90;75.20;;;;;;949226;146;27341;-77
2023/10/07 10:02:24;;;;;;;3.80;2.83;;;22.80;75.00;;;;;;953156;146;27295;-77
2023/10/07 10:05:05;;;;;;;5.25;3.80;;;22.80;75.20;;;;;;952496;146;27356;-77
2023/10/07 10:07:39;;;;;;;4.17;2.92;;;22.80;75.30;;;;;;951859;146;27367;-77
2023/10/07 10:10:07;;;;;;;4.45;3.42;;;22.70;75.10;;;;;;951860;146;27472;-77
2023/10/07 10:13:28;;;;;;;4.42;3.42;;;22.70;75.00;;;;;;953393;146;27455;-77
2023/10/07 10:17:48;;;;;;;3.85;3.40;;;22.70;75.00;;;;;;951326;146;27368;-77
2023/10/07 10:20:13;;;;;;;4.85;3.50;;;22.70;74.60;;;;;;954983;146;27313;-77
2023/10/07 10:22:51;;;;;;;4.47;3.77;;;22.70;74.30;;;;;;950813;146;27671;-77
2023/10/07 10:28:02;;;;;;;3.80;3.30;;;22.80;74.70;;;;;;939020;146;27450;-77
2023/10/07 10:30:26;;;;;;;5.33;3.90;;;22.90;74.60;;;;;;951226;146;27464;-77
2023/10/07 10:32:57;;;;;;;3.77;3.37;;;22.90;74.40;;;;;;952555;146;27356;-77
2023/10/07 10:35:25;;;;;;;4.47;3.27;;;23.00;74.30;;;;;;953076;145;27877;-77
2023/10/07 10:37:55;;;;;;;5.70;3.80;;;23.00;73.70;;;;;;951881;146;27315;-77
2023/10/07 10:40:21;;;;;;;4.35;3.45;;;23.00;73.20;;;;;;952901;146;27428;-77
2023/10/07 10:42:48;;;;;;;5.15;3.67;;;23.00;73.00;;;;;;953935;146;27455;-77
2023/10/07 10:45:24;;;;;;;5.08;3.80;;;23.00;72.80;;;;;;951579;146;27325;-77
2023/10/07 10:47:50;;;;;;;4.15;3.47;;;23.00;72.50;;;;;;949585;146;27876;-76
2023/10/07 10:50:17;;;;;;;4.67;3.70;;;23.00;72.30;;;;;;952073;146;27358;-77
2023/10/07 10:52:43;;;;;;;4.20;3.72;;;23.00;72.30;;;;;;953079;146;27440;-77
2023/10/07 10:55:11;;;;;;;3.40;3.10;;;23.00;72.40;;;;;;951704;146;27364;-77
2023/10/07 10:57:42;;;;;;;5.12;3.35;;;23.10;72.40;;;;;;950388;146;27523;-77
2023/10/07 11:00:22;;;;;;;4.30;3.50;;;23.10;72.30;;;;;;951286;146;27329;-77
2023/10/07 11:02:47;;;;;;;5.42;3.42;;;23.10;72.10;;;;;;952458;146;27293;-77
2023/10/07 11:05:14;;;;;;;5.33;3.92;;;23.10;72.10;;;;;;951712;146;27445;-77
2023/10/07 11:07:40;;;;;;;5.42;3.60;;;23.10;71.90;;;;;;953690;146;27351;-77
2023/10/07 11:10:07;;;;;;;4.00;3.30;;;23.10;72.10;;;;;;953631;146;27411;-77
2023/10/07 11:12:33;;;;;;;4.45;3.92;;;23.20;71.90;;;;;;952248;146;27456;-77
2023/10/07 11:15:06;;;;;;;4.60;3.77;;;23.20;71.90;;;;;;950965;146;27442;-77
2023/10/07 11:17:31;;;;;;;4.12;3.05;;;23.30;71.50;;;;;;952061;146;27362;-77
2023/10/07 11:19:58;;;;;;;4.85;3.75;;;23.30;71.20;;;;;;954053;145;27343;-77
2023/10/07 11:22:23;;;;;;;4.70;3.22;;;23.30;70.80;;;;;;953682;146;27415;-77
2023/10/07 11:24:52;;;;;;;3.90;3.47;;;23.30;70.80;;;;;;954202;146;27303;-77
2023/10/07 11:27:19;;;;;;;4.95;4.03;;;23.30;70.70;;;;;;952844;146;27574;-77
2023/10/07 11:29:45;;;;;;;5.92;4.15;;;23.30;70.70;;;;;;952144;146;27327;-78
2023/10/07 11:32:12;;;;;;;4.58;3.77;;;23.40;70.80;;;;;;948737;146;27408;-74
2023/10/07 11:34:39;;;;;;;4.65;3.40;;;23.40;71.00;;;;;;952900;146;27328;-74
2023/10/07 11:37:09;;;;;;;5.50;3.58;;;23.50;70.80;;;;;;953875;146;27358;-77
2023/10/07 11:39:38;;;;;;;5.85;3.45;;;23.50;70.80;;;;;;953204;146;27307;-76
2023/10/07 11:42:01;;;;;;;4.10;3.12;;;23.60;70.60;;;;;;952444;146;27339;-74
2023/10/07 11:44:28;;;;;;;3.90;3.30;;;23.60;70.30;;;;;;952530;146;27350;-75
2023/10/07 11:46:54;;;;;;;4.35;3.20;;;23.70;70.00;;;;;;953181;146;27341;-78
2023/10/07 11:49:22;;;;;;;5.25;3.55;;;23.70;69.90;;;;;;951611;146;27424;-74
2023/10/07 11:51:48;;;;;;;4.12;3.35;;;23.70;69.70;;;;;;953855;146;27387;-75
2023/10/07 11:54:14;;;;;;;5.67;3.25;;;23.70;69.50;;;;;;954182;146;27338;-79
2023/10/07 11:56:41;;;;;;;5.15;2.98;;;23.70;69.10;;;;;;956241;146;27399;-74
2023/10/07 11:59:07;;;;;;;4.83;3.02;;;23.70;68.90;;;;;;958210;146;27439;-74
2023/10/07 12:01:34;;;;;;;3.42;2.90;;;23.70;68.70;;;;;;956251;146;27402;-74
2023/10/07 12:04:00;;;;;;;4.00;3.47;;;23.60;68.50;;;;;;955150;146;27457;-75
2023/10/07 12:06:27;;;;;;;5.95;3.40;;;23.50;68.30;;;;;;953574;146;27328;-73
2023/10/07 12:08:55;;;;;;;3.72;3.30;;;23.40;67.90;;;;;;954588;146;27383;-75
2023/10/07 12:11:20;;;;;;;5.70;3.60;;;23.30;68.30;;;;;;955893;146;28767;-75
2023/10/07 12:13:47;;;;;;;3.60;2.67;;;23.10;69.20;;;;;;955670;146;27467;-76
2023/10/07 12:16:13;;;;;;;4.37;3.22;;;23.10;68.80;;;;;;954819;146;27351;-75
2023/10/07 12:18:40;;;;;;;5.45;3.70;;;23.00;69.00;;;;;;953574;146;27269;-75
2023/10/07 12:21:12;;;;;;;5.33;3.15;;;22.90;69.20;;;;;;955140;146;27429;-75
2023/10/07 12:23:33;;;;;;;4.00;3.15;;;22.90;69.50;;;;;;944651;147;27325;-74
2023/10/07 12:26:01;;;;;;;5.78;3.75;;;22.90;69.60;;;;;;945160;147;27469;-78
2023/10/07 12:28:26;;;;;;;5.17;3.75;;;22.90;69.70;;;;;;945058;147;27444;-74
2023/10/07 12:30:53;;;;;;;5.60;3.55;;;22.90;69.70;;;;;;946004;147;27418;-74
2023/10/07 12:33:19;;;;;;;4.60;3.37;;;22.90;69.70;;;;;;944778;147;27276;-73
2023/10/07 12:35:46;;;;;;;5.42;3.77;;;22.90;69.80;;;;;;944215;147;27322;-75
2023/10/07 12:38:13;;;;;;;6.53;3.30;;;22.90;69.80;;;;;;944788;147;27369;-76
2023/10/07 12:40:41;;;;;;;4.83;3.05;;;22.80;69.80;;;;;;945636;147;27325;-76
2023/10/07 12:43:07;;;;;;;4.10;3.30;;;22.80;69.90;;;;;;944688;147;27363;-76
2023/10/07 12:45:32;;;;;;;4.45;3.20;;;22.80;69.90;;;;;;942433;147;27408;-76
2023/10/07 12:48:03;;;;;;;5.70;3.40;;;22.80;70.00;;;;;;943601;147;29068;-76
2023/10/07 12:50:33;;;;;;;5.33;3.27;;;22.80;70.10;;;;;;943910;147;27343;-76
2023/10/07 12:52:58;;;;;;;4.10;2.95;;;22.80;70.00;;;;;;952960;146;27472;-76
2023/10/07 12:55:34;;;;;;;3.75;3.22;;;22.80;70.20;;;;;;954221;146;27413;-76
2023/10/07 12:57:57;;;;;;;4.47;3.22;;;22.80;70.30;;;;;;952869;146;27475;-76
2023/10/07 13:00:28;;;;;;;4.47;3.10;;;22.80;70.30;;;;;;951876;146;27422;-76
2023/10/07 13:02:50;;;;;;;5.25;3.00;;;22.80;70.20;;;;;;952393;146;27730;-76
2023/10/07 13:05:20;;;;;;;4.55;3.70;;;22.80;70.30;;;;;;953630;146;27360;-76
2023/10/07 13:07:49;;;;;;;4.92;3.33;;;22.90;70.40;;;;;;953807;146;27983;-76
2023/10/07 13:10:17;;;;;;;4.40;3.17;;;22.90;70.30;;;;;;952838;146;27366;-76
2023/10/07 13:12:42;;;;;;;7.00;4.58;;;22.90;70.10;;;;;;951938;146;27288;-76
2023/10/07 13:15:18;;;;;;;8.78;3.90;;;23.00;70.00;;;;;;953061;146;27364;-76
2023/10/07 13:17:35;;;;;;;7.05;4.00;;;23.00;69.80;;;;;;950300;146;27500;-76
2023/10/07 13:20:07;;;;;;;4.08;3.55;;;23.00;69.70;;;;;;952254;146;27277;-76
2023/10/07 13:22:29;;;;;;;4.90;3.80;;;23.10;69.80;;;;;;953589;146;27328;-76
2023/10/07 13:24:55;;;;;;;5.75;3.35;;;23.10;69.60;;;;;;953540;146;27362;-76
2023/10/07 13:27:24;;;;;;;4.67;3.87;;;23.10;68.80;;;;;;953094;146;27349;-76
2023/10/07 13:29:50;;;;;;;5.05;3.52;;;23.20;69.30;;;;;;955876;146;27292;-76